createdAt,value
2018-01-10T00:02:17.398Z,10.83
2018-01-10T00:04:44.911Z,9.83
2018-01-10T00:07:12.680Z,10.80
2018-01-10T00:09:40.725Z,9.30
2018-01-10T00:12:08.938Z,12.30
2018-01-10T00:14:36.805Z,12.13
2018-01-10T00:17:04.980Z,8.23
2018-01-10T00:19:34.530Z,7.00
2018-01-10T00:22:03.812Z,9.43
2018-01-10T00:24:32.988Z,9.27
2018-01-10T00:27:03.617Z,6.57
2018-01-10T00:29:32.713Z,8.00
2018-01-10T00:32:02.383Z,7.57
2018-01-10T00:34:32.262Z,6.93
2018-01-10T00:37:00.411Z,6.43
2018-01-10T00:39:27.950Z,7.20
2018-01-10T00:41:55.465Z,10.77
2018-01-10T00:44:22.978Z,8.13
2018-01-10T00:46:50.528Z,6.97
2018-01-10T00:49:18.806Z,7.47
2018-01-10T01:00:21.306Z,8.70
2018-01-10T01:02:48.833Z,7.70
2018-01-10T01:08:07.717Z,8.27
2018-01-10T01:10:36.074Z,6.63
2018-01-10T01:13:04.426Z,6.33
2018-01-10T01:15:33.109Z,7.73
2018-01-10T01:18:03.383Z,9.50
2018-01-10T01:20:32.969Z,7.20
2018-01-10T01:23:03.401Z,6.90
2018-01-10T01:25:31.789Z,7.23
2018-01-10T01:28:00.467Z,7.83
2018-01-10T01:30:28.917Z,7.90
2018-01-10T01:32:57.223Z,7.53
2018-01-10T01:35:24.784Z,8.00
2018-01-10T01:37:52.297Z,7.87
2018-01-10T01:40:19.853Z,7.83
2018-01-10T01:42:47.372Z,7.57
2018-01-10T01:45:14.886Z,5.90
2018-01-10T01:47:43.405Z,6.70
2018-01-10T01:50:11.382Z,7.73
2018-01-10T01:52:39.979Z,7.63
2018-01-10T01:55:07.811Z,5.53
2018-01-10T01:57:36.606Z,6.67
2018-01-10T02:00:05.363Z,7.27
2018-01-10T02:02:34.687Z,5.40
2018-01-10T02:05:05.331Z,8.40
2018-01-10T02:07:34.857Z,4.93
2018-01-10T02:10:05.325Z,7.17
2018-01-10T02:12:35.402Z,4.73
2018-01-10T02:15:04.856Z,8.93
2018-01-10T02:17:34.160Z,7.73
2018-01-10T02:20:04.970Z,4.73
2018-01-10T02:22:33.736Z,6.17
2018-01-10T02:25:04.171Z,4.03
2018-01-10T02:27:32.426Z,5.70
2018-01-10T02:30:02.160Z,5.23
2018-01-10T02:32:30.065Z,6.13
2018-01-10T02:34:57.746Z,6.13
2018-01-10T02:37:25.295Z,3.97
2018-01-10T02:42:44.716Z,3.20
2018-01-10T02:45:12.779Z,3.90
2018-01-10T02:47:41.800Z,2.93
2018-01-10T02:50:09.860Z,3.10
2018-01-10T02:52:38.232Z,3.40
2018-01-10T02:55:06.495Z,4.40
2018-01-10T02:57:36.673Z,3.20
2018-01-10T03:00:05.801Z,2.53
2018-01-10T03:02:34.983Z,3.47
2018-01-10T03:05:04.147Z,2.43
2018-01-10T03:07:34.976Z,2.23
2018-01-10T03:10:04.378Z,2.97
2018-01-10T03:12:34.880Z,2.57
2018-01-10T03:15:03.956Z,3.90
2018-01-10T03:17:33.868Z,2.10
2018-01-10T03:20:03.061Z,2.27
2018-01-10T03:22:31.892Z,2.67
2018-01-10T03:25:00.372Z,2.80
2018-01-10T03:27:27.933Z,2.77
2018-01-10T03:29:55.474Z,3.00
2018-01-10T03:32:22.977Z,2.37
2018-01-10T03:34:50.492Z,4.43
2018-01-10T03:37:18.024Z,2.40
2018-01-10T03:39:45.876Z,2.10
2018-01-10T03:42:13.809Z,3.80
2018-01-10T03:44:42.403Z,2.63
2018-01-10T03:47:10.430Z,2.00
2018-01-10T03:49:38.578Z,2.17
2018-01-10T03:52:07.128Z,1.90
2018-01-10T03:54:36.576Z,2.17
2018-01-10T03:57:05.806Z,2.60
2018-01-10T03:59:35.728Z,1.93
2018-01-10T04:02:05.260Z,2.07
2018-01-10T04:04:34.690Z,2.10
2018-01-10T04:07:03.473Z,3.83
2018-01-10T04:09:32.046Z,1.53
2018-01-10T04:12:00.092Z,1.90
2018-01-10T04:14:28.528Z,1.80
2018-01-10T04:16:56.063Z,2.60
2018-01-10T04:19:23.572Z,3.03
2018-01-10T04:21:51.114Z,1.40
2018-01-10T04:24:19.405Z,3.57
2018-01-10T04:26:47.707Z,1.53
2018-01-10T04:29:15.389Z,2.37
2018-01-10T04:31:43.233Z,2.63
2018-01-10T04:34:11.231Z,1.63
2018-01-10T04:36:39.072Z,1.37
2018-01-10T04:39:07.349Z,1.67
2018-01-10T04:41:36.555Z,6.60
2018-01-10T04:44:05.844Z,3.80
2018-01-10T04:46:34.602Z,1.90
2018-01-10T04:49:04.413Z,2.03
2018-01-10T04:51:32.466Z,2.03
2018-01-10T04:54:01.924Z,1.70
2018-01-10T04:56:29.604Z,1.60
2018-01-10T04:58:58.561Z,1.83
2018-01-10T05:01:26.085Z,2.80
2018-01-10T05:03:53.616Z,3.20
2018-01-10T05:06:21.133Z,2.10
2018-01-10T05:08:48.676Z,2.57
2018-01-10T05:11:16.960Z,3.60
2018-01-10T05:13:45.282Z,1.63
2018-01-10T05:16:13.250Z,2.67
2018-01-10T05:18:41.212Z,3.47
2018-01-10T05:21:09.181Z,3.60
2018-01-10T05:23:37.562Z,5.00
2018-01-10T05:26:07.060Z,4.97
2018-01-10T05:28:36.531Z,4.70
2018-01-10T05:31:05.514Z,4.07
2018-01-10T05:33:35.341Z,2.40
2018-01-10T05:36:05.095Z,4.40
2018-01-10T05:38:49.850Z,4.47
2018-01-10T05:41:17.392Z,6.43
2018-01-10T05:43:45.550Z,4.27
2018-01-10T05:46:14.237Z,4.17
2018-01-10T05:48:43.523Z,3.40
2018-01-10T05:51:11.341Z,2.93
2018-01-10T05:53:39.499Z,4.63
2018-01-10T05:56:08.117Z,4.10
2018-01-10T05:58:37.396Z,3.27
2018-01-10T06:01:06.839Z,2.37
2018-01-10T06:03:36.413Z,2.03
2018-01-10T06:06:05.023Z,2.53
2018-01-10T06:08:34.628Z,2.23
2018-01-10T06:11:04.418Z,2.90
2018-01-10T06:13:33.217Z,2.00
2018-01-10T06:16:03.468Z,3.47
2018-01-10T06:18:33.412Z,1.73
2018-01-10T06:21:01.901Z,3.37
2018-01-10T06:23:29.456Z,1.87
2018-01-10T06:25:59.309Z,3.07
2018-01-10T06:28:27.380Z,1.40
2018-01-10T06:30:55.017Z,1.97
2018-01-10T06:33:23.291Z,2.47
2018-01-10T06:35:51.600Z,2.47
2018-01-10T06:38:19.111Z,3.20
2018-01-10T06:40:47.384Z,3.37
2018-01-10T06:43:15.914Z,2.43
2018-01-10T06:45:43.423Z,4.33
2018-01-10T06:48:11.576Z,2.33
2018-01-10T06:50:39.616Z,2.33
2018-01-10T06:53:07.400Z,3.37
2018-01-10T06:55:35.161Z,4.23
2018-01-10T06:58:03.323Z,6.40
2018-01-10T07:00:31.501Z,2.50
2018-01-10T07:03:00.715Z,2.83
2018-01-10T07:05:29.068Z,3.47
2018-01-10T07:07:56.680Z,2.57
2018-01-10T07:10:24.436Z,4.53
2018-01-10T07:12:52.080Z,3.47
2018-01-10T07:15:19.596Z,3.27
2018-01-10T07:17:47.923Z,4.53
2018-01-10T07:20:16.217Z,2.00
2018-01-10T07:22:43.965Z,3.70
2018-01-10T07:25:11.578Z,4.90
2018-01-10T07:27:39.930Z,5.40
2018-01-10T07:30:07.844Z,5.90
2018-01-10T07:32:36.475Z,4.63
2018-01-10T07:35:04.112Z,3.17
2018-01-10T07:37:32.662Z,4.40
2018-01-10T07:40:00.246Z,5.07
2018-01-10T07:42:27.869Z,4.40
2018-01-10T07:44:55.472Z,32.23
2018-01-10T07:47:22.981Z,33.37
2018-01-10T07:49:50.505Z,34.27
2018-01-10T07:52:18.033Z,5.03
2018-01-10T07:54:45.617Z,18.80
2018-01-10T07:57:13.353Z,13.77
2018-01-10T07:59:40.881Z,10.70
2018-01-10T08:02:08.626Z,29.33
2018-01-10T08:04:37.198Z,17.93
2018-01-10T08:07:04.878Z,4.83
2018-01-10T08:09:32.880Z,8.33
2018-01-10T08:12:01.186Z,5.23
2018-01-10T08:14:28.806Z,6.07
2018-01-10T08:16:56.494Z,5.33
2018-01-10T08:19:24.278Z,8.70
2018-01-10T08:21:51.859Z,4.80
2018-01-10T08:24:19.517Z,4.30
2018-01-10T08:26:47.040Z,6.90
2018-01-10T08:29:14.593Z,4.97
2018-01-10T08:31:42.936Z,3.87
2018-01-10T08:34:10.492Z,5.73
2018-01-10T08:36:38.109Z,6.83
2018-01-10T08:39:05.677Z,3.27
2018-01-10T08:41:33.465Z,6.90
2018-01-10T08:44:01.209Z,4.60
2018-01-10T08:46:28.794Z,4.70
2018-01-10T08:48:56.371Z,6.67
2018-01-10T08:51:23.997Z,5.27
2018-01-10T08:53:51.547Z,4.20
2018-01-10T08:56:19.063Z,6.23
2018-01-10T08:58:46.672Z,3.07
2018-01-10T09:01:14.188Z,5.97
2018-01-10T09:03:42.634Z,4.47
2018-01-10T09:06:10.247Z,10.17
2018-01-10T09:08:38.753Z,9.93
2018-01-10T09:11:06.417Z,13.33
2018-01-10T09:13:34.326Z,6.47
2018-01-10T09:16:02.912Z,4.10
2018-01-10T09:18:30.680Z,4.07
2018-01-10T09:20:59.672Z,4.97
2018-01-10T09:23:27.266Z,3.70
2018-01-10T09:25:55.592Z,3.93
2018-01-10T09:28:23.229Z,4.83
2018-01-10T09:30:50.782Z,3.90
2018-01-10T09:33:18.348Z,2.37
2018-01-10T09:35:45.896Z,5.57
2018-01-10T09:38:13.775Z,3.57
2018-01-10T09:40:41.852Z,5.30
2018-01-10T09:43:10.320Z,5.80
2018-01-10T09:45:38.059Z,3.00
2018-01-10T09:48:06.541Z,5.93
2018-01-10T09:50:34.113Z,3.83
2018-01-10T09:53:02.444Z,3.77
2018-01-10T09:55:31.308Z,5.17
2018-01-10T09:57:59.786Z,5.23
2018-01-10T10:00:28.166Z,5.23
2018-01-10T10:02:55.774Z,4.93
2018-01-10T10:05:23.332Z,3.30
2018-01-10T10:07:50.871Z,2.90
2018-01-10T10:10:18.411Z,5.57
2018-01-10T10:12:45.974Z,3.87
2018-01-10T10:15:13.507Z,5.10
2018-01-10T10:17:41.082Z,4.07
2018-01-10T10:20:08.725Z,6.73
2018-01-10T10:22:36.616Z,2.53
2018-01-10T10:25:05.313Z,3.47
2018-01-10T10:27:33.379Z,2.50
2018-01-10T10:30:02.264Z,2.57
2018-01-10T10:32:29.886Z,5.33
2018-01-10T10:34:57.563Z,4.53
2018-01-10T10:37:25.878Z,3.80
2018-01-10T10:39:53.531Z,4.10
2018-01-10T10:42:21.137Z,4.17
2018-01-10T10:44:48.705Z,6.97
2018-01-10T10:47:17.005Z,2.13
2018-01-10T10:49:45.316Z,3.97
2018-01-10T10:52:12.830Z,4.37
2018-01-10T10:54:41.346Z,3.43
2018-01-10T10:57:09.781Z,4.50
2018-01-10T10:59:38.323Z,4.07
2018-01-10T11:02:06.277Z,3.57
2018-01-10T11:04:34.364Z,3.53
2018-01-10T11:07:02.730Z,5.77
2018-01-10T11:09:31.270Z,3.37
2018-01-10T11:11:58.816Z,4.03
2018-01-10T11:14:26.499Z,5.43
2018-01-10T11:16:55.294Z,3.70
2018-01-10T11:19:23.917Z,3.70
2018-01-10T11:21:51.488Z,3.27
2018-01-10T11:24:19.002Z,3.03
2018-01-10T11:26:46.548Z,5.80
2018-01-10T11:29:14.081Z,6.27
2018-01-10T11:31:41.708Z,5.17
2018-01-10T11:34:09.333Z,3.30
2018-01-10T11:36:37.346Z,4.43
2018-01-10T11:39:04.972Z,4.63
2018-01-10T11:41:33.900Z,3.17
2018-01-10T11:44:02.787Z,4.80
2018-01-10T11:46:30.564Z,5.20
2018-01-10T11:48:59.136Z,5.00
2018-01-10T11:51:27.553Z,3.97
2018-01-10T11:53:55.867Z,3.43
2018-01-10T11:56:24.406Z,4.77
2018-01-10T11:58:52.594Z,3.77
2018-01-10T12:01:20.212Z,5.83
2018-01-10T12:03:47.757Z,2.87
2018-01-10T12:06:15.309Z,3.17
2018-01-10T12:08:42.856Z,2.40
2018-01-10T12:11:11.394Z,4.13
2018-01-10T12:13:39.760Z,1.97
2018-01-10T12:16:08.275Z,2.03
2018-01-10T12:18:37.062Z,4.97
2018-01-10T12:21:05.831Z,2.93
2018-01-10T12:23:34.851Z,2.50
2018-01-10T12:26:03.164Z,1.90
2018-01-10T12:28:31.154Z,3.43
2018-01-10T12:30:59.334Z,4.43
2018-01-10T12:33:27.414Z,3.93
2018-01-10T12:35:55.472Z,3.50
2018-01-10T12:38:23.929Z,3.03
2018-01-10T12:40:52.255Z,4.93
2018-01-10T12:43:19.776Z,1.40
2018-01-10T12:45:47.302Z,2.00
2018-01-10T12:48:14.848Z,3.60
2018-01-10T12:50:42.369Z,2.87
2018-01-10T12:53:10.032Z,2.40
2018-01-10T12:55:38.240Z,2.90
2018-01-10T12:58:06.587Z,2.13
2018-01-10T13:00:34.843Z,2.97
2018-01-10T13:03:03.156Z,2.17
2018-01-10T13:05:31.724Z,2.27
2018-01-10T13:08:00.413Z,1.37
2018-01-10T13:10:28.440Z,1.97
2018-01-10T13:12:57.526Z,3.43
2018-01-10T13:15:25.290Z,2.53
2018-01-10T13:17:53.956Z,2.77
2018-01-10T13:20:22.309Z,2.60
2018-01-10T13:22:49.840Z,3.20
2018-01-10T13:25:17.528Z,1.40
2018-01-10T13:27:45.316Z,2.50
2018-01-10T13:30:13.176Z,2.10
2018-01-10T13:32:41.204Z,1.47
2018-01-10T13:35:09.348Z,1.20
2018-01-10T13:37:38.352Z,2.63
2018-01-10T13:40:07.212Z,3.70
2018-01-10T13:42:35.777Z,2.27
2018-01-10T13:45:03.847Z,1.63
2018-01-10T13:47:32.736Z,4.70
2018-01-10T13:50:01.128Z,2.43
2018-01-10T13:52:30.144Z,2.87
2018-01-10T13:54:57.801Z,2.10
2018-01-10T13:57:25.418Z,1.47
2018-01-10T13:59:52.968Z,3.97
2018-01-10T14:02:20.510Z,1.47
2018-01-10T14:04:48.795Z,5.17
2018-01-10T14:07:17.137Z,1.17
2018-01-10T14:09:44.652Z,2.23
2018-01-10T14:12:12.278Z,4.40
2018-01-10T14:14:40.959Z,2.37
2018-01-10T14:17:08.988Z,4.97
2018-01-10T14:19:37.025Z,3.60
2018-01-10T14:22:05.850Z,2.60
2018-01-10T14:24:35.465Z,2.53
2018-01-10T14:27:04.113Z,4.20
2018-01-10T14:29:32.694Z,1.57
2018-01-10T14:32:01.209Z,4.80
2018-01-10T14:34:29.709Z,4.73
2018-01-10T14:36:58.061Z,2.87
2018-01-10T14:39:25.602Z,3.37
2018-01-10T14:41:53.886Z,2.83
2018-01-10T14:44:22.086Z,6.83
2018-01-10T14:46:49.646Z,6.17
2018-01-10T14:49:17.749Z,5.60
2018-01-10T14:51:45.489Z,2.70
2018-01-10T14:54:13.016Z,2.53
2018-01-10T14:56:40.716Z,2.07
2018-01-10T14:59:08.402Z,3.77
2018-01-10T15:01:37.127Z,3.97
2018-01-10T15:04:05.343Z,3.73
2018-01-10T15:06:34.558Z,3.20
2018-01-10T15:09:03.289Z,3.67
2018-01-10T15:11:31.728Z,2.53
2018-01-10T15:13:59.640Z,1.20
2018-01-10T15:16:28.353Z,2.40
2018-01-10T15:18:55.863Z,2.97
2018-01-10T15:21:24.594Z,2.17
2018-01-10T15:23:52.201Z,2.87
2018-01-10T15:26:19.750Z,3.90
2018-01-10T15:28:47.313Z,2.47
2018-01-10T15:31:15.032Z,2.90
2018-01-10T15:33:42.714Z,2.33
2018-01-10T15:36:10.256Z,4.33
2018-01-10T15:38:37.919Z,3.90
2018-01-10T15:41:05.594Z,2.33
2018-01-10T15:43:34.178Z,2.63
2018-01-10T15:46:01.965Z,3.30
2018-01-10T15:48:29.804Z,3.57
2018-01-10T15:50:57.365Z,4.43
2018-01-10T15:53:24.909Z,2.60
2018-01-10T15:55:52.487Z,3.73
2018-01-10T15:58:20.029Z,4.87
2018-01-10T16:00:47.548Z,4.40
2018-01-10T16:03:15.066Z,2.33
2018-01-10T16:05:42.715Z,4.53
2018-01-10T16:08:10.335Z,3.80
2018-01-10T16:10:38.779Z,3.43
2018-01-10T16:13:06.855Z,2.33
2018-01-10T16:15:35.051Z,2.80
2018-01-10T16:18:03.186Z,3.07
2018-01-10T16:20:31.183Z,2.40
2018-01-10T16:22:58.718Z,3.03
2018-01-10T16:25:26.313Z,5.57
2018-01-10T16:27:54.144Z,3.73
2018-01-10T16:30:21.676Z,2.50
2018-01-10T16:32:49.969Z,6.03
2018-01-10T16:35:17.576Z,2.83
2018-01-10T16:37:45.100Z,3.43
2018-01-10T16:40:12.734Z,3.80
2018-01-10T16:42:41.348Z,1.93
2018-01-10T16:45:10.311Z,2.90
2018-01-10T16:47:38.594Z,3.50
2018-01-10T16:50:06.833Z,1.90
2018-01-10T16:52:35.413Z,2.80
2018-01-10T16:55:04.483Z,2.00
2018-01-10T16:57:34.554Z,2.63
2018-01-10T17:00:03.620Z,5.20
2018-01-10T17:02:34.652Z,3.60
2018-01-10T17:05:03.894Z,4.30
2018-01-10T17:07:33.390Z,4.20
2018-01-10T17:10:04.079Z,3.93
2018-01-10T17:12:33.871Z,4.43
2018-01-10T17:15:02.531Z,2.67
2018-01-10T17:17:33.343Z,2.80
2018-01-10T17:20:03.736Z,3.40
2018-01-10T17:22:33.463Z,4.27
2018-01-10T17:25:02.226Z,3.67
2018-01-10T17:27:31.093Z,3.07
2018-01-10T17:30:01.670Z,7.10
2018-01-10T17:32:29.253Z,5.97
2018-01-10T17:34:57.548Z,5.27
2018-01-10T17:37:26.682Z,5.17
2018-01-10T17:39:54.259Z,3.97
2018-01-10T17:42:22.492Z,4.30
2018-01-10T17:44:50.797Z,6.83
2018-01-10T17:47:18.380Z,3.77
2018-01-10T17:49:45.933Z,4.03
2018-01-10T17:52:13.780Z,5.20
2018-01-10T17:54:41.318Z,14.30
2018-01-10T17:57:09.405Z,20.00
2018-01-10T17:59:38.420Z,17.70
2018-01-10T18:02:06.909Z,11.10
2018-01-10T18:04:34.588Z,7.60
2018-01-10T18:07:04.299Z,17.17
2018-01-10T18:09:32.650Z,14.43
2018-01-10T18:12:01.240Z,10.53
2018-01-10T18:14:29.014Z,9.97
2018-01-10T18:16:57.410Z,11.00
2018-01-10T18:19:25.384Z,10.90
2018-01-10T18:21:53.708Z,13.80
2018-01-10T18:24:21.238Z,12.23
2018-01-10T18:26:49.798Z,16.57
2018-01-10T18:29:17.344Z,11.83
2018-01-10T18:31:44.853Z,10.00
2018-01-10T18:34:13.325Z,12.40
2018-01-10T18:36:41.630Z,11.83
2018-01-10T18:39:09.232Z,11.57
2018-01-10T18:41:37.689Z,11.70
2018-01-10T18:44:06.574Z,13.03
2018-01-10T18:46:34.774Z,7.37
2018-01-10T18:49:02.716Z,7.93
2018-01-10T18:51:31.198Z,6.60
2018-01-10T18:53:58.744Z,8.13
2018-01-10T18:56:26.274Z,8.87
2018-01-10T18:58:54.559Z,9.87
2018-01-10T19:01:22.866Z,10.97
2018-01-10T19:03:50.432Z,10.03
2018-01-10T19:06:18.121Z,10.20
2018-01-10T19:08:45.697Z,42.57
2018-01-10T19:11:13.221Z,69.63
2018-01-10T19:13:40.769Z,29.43
2018-01-10T19:16:08.640Z,23.23
2018-01-10T19:18:36.894Z,18.67
2018-01-10T19:21:04.884Z,18.10
2018-01-10T19:23:33.061Z,24.70
2018-01-10T19:26:01.978Z,17.73
2018-01-10T19:28:31.971Z,16.47
2018-01-10T19:31:01.677Z,14.70
2018-01-10T19:33:29.216Z,14.20
2018-01-10T19:35:57.624Z,14.93
2018-01-10T19:38:25.153Z,17.53
2018-01-10T19:40:53.433Z,11.83
2018-01-10T19:43:21.752Z,11.53
2018-01-10T19:45:49.274Z,10.17
2018-01-10T19:48:17.162Z,14.03
2018-01-10T19:50:44.945Z,14.43
2018-01-10T19:53:13.255Z,14.57
2018-01-10T19:55:42.096Z,13.90
2018-01-10T19:58:10.549Z,15.27
2018-01-10T20:00:38.322Z,12.33
2018-01-10T20:03:06.888Z,20.57
2018-01-10T20:05:34.997Z,22.07
2018-01-10T20:08:03.194Z,13.63
2018-01-10T20:10:31.690Z,13.63
2018-01-10T20:13:02.720Z,17.90
2018-01-10T20:15:31.483Z,15.37
2018-01-10T20:18:01.294Z,19.30
2018-01-10T20:20:28.961Z,25.37
2018-01-10T20:22:56.509Z,42.40
2018-01-10T20:25:24.072Z,34.27
2018-01-10T20:27:51.631Z,43.80
2018-01-10T20:30:19.157Z,45.47
2018-01-10T20:32:46.705Z,33.43
2018-01-10T20:35:15.756Z,21.67
2018-01-10T20:37:43.343Z,22.50
2018-01-10T20:40:10.979Z,16.80
2018-01-10T20:42:38.588Z,14.83
2018-01-10T20:45:07.232Z,20.20
2018-01-10T20:47:34.962Z,19.53
2018-01-10T20:50:03.058Z,16.60
2018-01-10T20:52:30.757Z,17.37
2018-01-10T20:54:58.332Z,17.53
2018-01-10T20:57:25.893Z,21.60
2018-01-10T20:59:54.221Z,18.30
2018-01-10T21:02:21.780Z,16.90
2018-01-10T21:04:49.325Z,16.03
2018-01-10T21:07:16.843Z,19.47
2018-01-10T21:09:44.417Z,15.90
2018-01-10T21:12:12.149Z,20.97
2018-01-10T21:14:40.707Z,16.70
2018-01-10T21:17:08.854Z,12.23
2018-01-10T21:19:36.665Z,11.20
2018-01-10T21:22:04.924Z,12.23
2018-01-10T21:24:33.370Z,12.60
2018-01-10T21:27:03.010Z,16.90
2018-01-10T21:29:31.397Z,12.73
2018-01-10T21:31:59.006Z,10.97
2018-01-10T21:34:27.403Z,13.37
2018-01-10T21:36:55.695Z,13.80
2018-01-10T21:39:23.235Z,11.93
2018-01-10T21:41:50.777Z,14.37
2018-01-10T21:44:18.290Z,19.93
2018-01-10T21:46:45.843Z,14.37
2018-01-10T21:49:13.611Z,13.30
2018-01-10T21:51:41.209Z,18.30
2018-01-10T21:54:08.969Z,16.57
2018-01-10T21:56:36.590Z,22.33
2018-01-10T21:59:04.289Z,19.83
2018-01-10T22:01:32.266Z,20.70
2018-01-10T22:04:00.098Z,18.80
2018-01-10T22:06:27.657Z,17.37
2018-01-10T22:08:55.250Z,14.40
2018-01-10T22:11:23.085Z,11.53
2018-01-10T22:13:50.620Z,12.00
2018-01-10T22:16:19.922Z,12.13
2018-01-10T22:18:48.226Z,9.73
2018-01-10T22:21:15.748Z,11.93
2018-01-10T22:23:44.060Z,8.90
2018-01-10T22:26:11.635Z,10.67
2018-01-10T22:28:39.368Z,9.73
2018-01-10T22:31:07.109Z,9.50
2018-01-10T22:33:36.010Z,9.93
2018-01-10T22:36:04.221Z,11.27
2018-01-10T22:38:33.388Z,10.97
2018-01-10T22:41:01.016Z,11.30
2018-01-10T22:43:28.587Z,12.53
2018-01-10T22:45:56.294Z,9.53
2018-01-10T22:48:24.067Z,13.13
2018-01-10T22:50:51.592Z,15.70
2018-01-10T22:53:19.889Z,12.37
2018-01-10T22:55:47.519Z,7.57
2018-01-10T22:58:16.376Z,8.57
2018-01-10T23:00:44.186Z,8.90
2018-01-10T23:03:12.508Z,10.37
2018-01-10T23:05:40.278Z,10.37
2018-01-10T23:08:08.245Z,8.87
2018-01-10T23:10:36.888Z,7.67
2018-01-10T23:13:05.075Z,6.30
2018-01-10T23:15:33.205Z,8.10
2018-01-10T23:18:01.293Z,6.90
2018-01-10T23:20:28.860Z,9.87
2018-01-10T23:22:57.152Z,5.60
2018-01-10T23:25:25.450Z,8.93
2018-01-10T23:27:52.965Z,7.70
2018-01-10T23:30:20.497Z,11.30
2018-01-10T23:32:48.353Z,8.17
2018-01-10T23:35:15.873Z,5.67
2018-01-10T23:37:44.172Z,7.77
2018-01-10T23:40:11.847Z,9.50
2018-01-10T23:42:39.566Z,8.50
2018-01-10T23:45:07.669Z,8.63
2018-01-10T23:47:35.909Z,9.53
2018-01-10T23:50:04.380Z,7.37
2018-01-10T23:52:33.346Z,7.17
2018-01-10T23:55:01.092Z,7.43
2018-01-10T23:57:29.490Z,8.13
2018-01-10T23:59:57.013Z,9.93
